sensor_id;sensor_type;location;lat;lon;timestamp;temperature;humidity
49503;DHT22;35409;48.776;9.204;2024-01-16T00:00:47;-0.80;99.90
49503;DHT22;35409;48.776;9.204;2024-01-16T00:03:12;-0.80;99.90
49503;DHT22;35409;48.776;9.204;2024-01-16T00:05:38;-0.80;99.90
49503;DHT22;35409;48.776;9.204;2024-01-16T00:08:04;-0.80;99.90
49503;DHT22;35409;48.776;9.204;2024-01-16T00:10:29;-0.80;99.90
49503;DHT22;35409;48.776;9.204;2024-01-16T00:12:55;-0.70;99.90
49503;DHT22;35409;48.776;9.204;2024-01-16T00:15:21;-0.70;99.90
49503;DHT22;35409;48.776;9.204;2024-01-16T00:17:47;-0.70;99.90
49503;DHT22;35409;48.776;9.204;2024-01-16T00:20:14;-0.70;99.90
49503;DHT22;35409;48.776;9.204;2024-01-16T00:22:41;-0.80;99.90
49503;DHT22;35409;48.776;9.204;2024-01-16T00:25:08;-0.70;99.90
49503;DHT22;35409;48.776;9.204;2024-01-16T00:27:34;-0.70;99.90
49503;DHT22;35409;48.776;9.204;2024-01-16T00:30:00;-0.70;99.90
49503;DHT22;35409;48.776;9.204;2024-01-16T00:32:25;-0.70;99.90
49503;DHT22;35409;48.776;9.204;2024-01-16T00:34:52;-0.70;99.90
49503;DHT22;35409;48.776;9.204;2024-01-16T00:37:18;-0.70;99.90
49503;DHT22;35409;48.776;9.204;2024-01-16T00:39:43;-0.80;99.90
49503;DHT22;35409;48.776;9.204;2024-01-16T00:42:09;-0.80;99.90
49503;DHT22;35409;48.776;9.204;2024-01-16T00:44:35;-0.90;99.90
49503;DHT22;35409;48.776;9.204;2024-01-16T00:47:01;-0.90;99.90
49503;DHT22;35409;48.776;9.204;2024-01-16T00:49:28;-0.90;99.90
49503;DHT22;35409;48.776;9.204;2024-01-16T00:51:54;-1.00;99.90
49503;DHT22;35409;48.776;9.204;2024-01-16T00:54:20;-1.00;99.90
49503;DHT22;35409;48.776;9.204;2024-01-16T00:56:46;-1.10;99.90
49503;DHT22;35409;48.776;9.204;2024-01-16T00:59:12;-1.10;99.90
49503;DHT22;35409;48.776;9.204;2024-01-16T01:01:38;-1.10;99.90
49503;DHT22;35409;48.776;9.204;2024-01-16T01:04:04;-1.10;99.90
49503;DHT22;35409;48.776;9.204;2024-01-16T01:06:30;-1.20;99.90
49503;DHT22;35409;48.776;9.204;2024-01-16T01:08:55;-1.20;99.90
49503;DHT22;35409;48.776;9.204;2024-01-16T01:11:21;-1.00;99.90
49503;DHT22;35409;48.776;9.204;2024-01-16T01:13:48;-1.00;99.90
49503;DHT22;35409;48.776;9.204;2024-01-16T01:16:14;-1.00;99.90
49503;DHT22;35409;48.776;9.204;2024-01-16T01:18:40;-1.00;99.90
49503;DHT22;35409;48.776;9.204;2024-01-16T01:21:07;-1.00;99.90
49503;DHT22;35409;48.776;9.204;2024-01-16T01:23:32;-1.10;99.90
49503;DHT22;35409;48.776;9.204;2024-01-16T01:25:58;-1.00;99.90
49503;DHT22;35409;48.776;9.204;2024-01-16T01:28:24;-0.90;99.90
49503;DHT22;35409;48.776;9.204;2024-01-16T01:30:50;-1.00;99.90
49503;DHT22;35409;48.776;9.204;2024-01-16T01:33:18;-1.00;99.90
49503;DHT22;35409;48.776;9.204;2024-01-16T01:35:44;-1.10;99.90
49503;DHT22;35409;48.776;9.204;2024-01-16T01:38:11;-1.10;99.90
49503;DHT22;35409;48.776;9.204;2024-01-16T01:40:38;-1.20;99.90
49503;DHT22;35409;48.776;9.204;2024-01-16T01:43:25;-1.20;99.90
49503;DHT22;35409;48.776;9.204;2024-01-16T01:48:26;-1.20;99.90
49503;DHT22;35409;48.776;9.204;2024-01-16T01:50:51;-1.20;99.90
49503;DHT22;35409;48.776;9.204;2024-01-16T01:53:18;-1.20;99.90
49503;DHT22;35409;48.776;9.204;2024-01-16T01:55:47;-1.20;99.90
49503;DHT22;35409;48.776;9.204;2024-01-16T01:58:13;-1.20;99.90
49503;DHT22;35409;48.776;9.204;2024-01-16T02:00:40;-1.20;99.90
49503;DHT22;35409;48.776;9.204;2024-01-16T02:03:06;-1.20;99.90
49503;DHT22;35409;48.776;9.204;2024-01-16T02:05:34;-1.20;99.90
49503;DHT22;35409;48.776;9.204;2024-01-16T02:08:00;-1.20;99.90
49503;DHT22;35409;48.776;9.204;2024-01-16T02:10:28;-1.30;99.90
49503;DHT22;35409;48.776;9.204;2024-01-16T02:12:53;-1.30;99.90
49503;DHT22;35409;48.776;9.204;2024-01-16T02:15:19;-1.50;99.90
49503;DHT22;35409;48.776;9.204;2024-01-16T02:17:47;-1.60;99.90
49503;DHT22;35409;48.776;9.204;2024-01-16T02:20:12;-1.70;99.90
49503;DHT22;35409;48.776;9.204;2024-01-16T02:22:39;-1.80;99.90
49503;DHT22;35409;48.776;9.204;2024-01-16T02:25:08;-1.90;99.90
49503;DHT22;35409;48.776;9.204;2024-01-16T02:27:35;-1.90;99.90
49503;DHT22;35409;48.776;9.204;2024-01-16T02:30:00;-2.00;99.90
49503;DHT22;35409;48.776;9.204;2024-01-16T02:32:26;-2.00;99.90
49503;DHT22;35409;48.776;9.204;2024-01-16T02:34:51;-2.10;99.90
49503;DHT22;35409;48.776;9.204;2024-01-16T02:37:17;-2.10;99.90
49503;DHT22;35409;48.776;9.204;2024-01-16T02:39:43;-2.20;99.90
49503;DHT22;35409;48.776;9.204;2024-01-16T02:42:08;-2.20;99.90
49503;DHT22;35409;48.776;9.204;2024-01-16T02:44:34;-2.30;99.90
49503;DHT22;35409;48.776;9.204;2024-01-16T02:46:59;-2.30;99.90
49503;DHT22;35409;48.776;9.204;2024-01-16T02:49:25;-2.30;99.90
49503;DHT22;35409;48.776;9.204;2024-01-16T02:51:51;-2.40;99.90
49503;DHT22;35409;48.776;9.204;2024-01-16T02:54:17;-2.40;99.90
49503;DHT22;35409;48.776;9.204;2024-01-16T02:56:43;-2.30;99.90
49503;DHT22;35409;48.776;9.204;2024-01-16T02:59:11;-2.30;99.90
49503;DHT22;35409;48.776;9.204;2024-01-16T03:01:37;-2.40;99.90
49503;DHT22;35409;48.776;9.204;2024-01-16T03:04:02;-2.30;99.90
49503;DHT22;35409;48.776;9.204;2024-01-16T03:06:28;-2.20;99.90
49503;DHT22;35409;48.776;9.204;2024-01-16T03:08:56;-2.20;99.90
49503;DHT22;35409;48.776;9.204;2024-01-16T03:11:21;-2.20;99.90
49503;DHT22;35409;48.776;9.204;2024-01-16T03:13:47;-2.20;99.90
49503;DHT22;35409;48.776;9.204;2024-01-16T03:16:15;-2.10;99.90
49503;DHT22;35409;48.776;9.204;2024-01-16T03:18:41;-2.10;99.90
49503;DHT22;35409;48.776;9.204;2024-01-16T03:21:07;-2.10;99.90
49503;DHT22;35409;48.776;9.204;2024-01-16T03:23:42;-2.10;99.90
49503;DHT22;35409;48.776;9.204;2024-01-16T03:26:12;-2.20;99.90
49503;DHT22;35409;48.776;9.204;2024-01-16T03:28:38;-2.20;99.90
49503;DHT22;35409;48.776;9.204;2024-01-16T03:31:03;-2.10;99.90
49503;DHT22;35409;48.776;9.204;2024-01-16T03:33:29;-2.10;99.90
49503;DHT22;35409;48.776;9.204;2024-01-16T03:35:55;-2.10;99.90
49503;DHT22;35409;48.776;9.204;2024-01-16T03:38:20;-2.00;99.90
49503;DHT22;35409;48.776;9.204;2024-01-16T03:40:46;-2.00;99.90
49503;DHT22;35409;48.776;9.204;2024-01-16T03:43:12;-2.10;99.90
49503;DHT22;35409;48.776;9.204;2024-01-16T03:45:37;-2.20;99.90
49503;DHT22;35409;48.776;9.204;2024-01-16T03:48:03;-2.20;99.90
49503;DHT22;35409;48.776;9.204;2024-01-16T03:50:29;-2.30;99.90
49503;DHT22;35409;48.776;9.204;2024-01-16T03:52:55;-2.40;99.90
49503;DHT22;35409;48.776;9.204;2024-01-16T03:55:20;-2.40;99.90
49503;DHT22;35409;48.776;9.204;2024-01-16T03:57:46;-2.50;99.90
49503;DHT22;35409;48.776;9.204;2024-01-16T04:00:12;-2.50;99.90
49503;DHT22;35409;48.776;9.204;2024-01-16T04:02:38;-2.50;99.90
49503;DHT22;35409;48.776;9.204;2024-01-16T04:05:04;-2.60;99.90
49503;DHT22;35409;48.776;9.204;2024-01-16T04:07:31;-2.70;99.90
49503;DHT22;35409;48.776;9.204;2024-01-16T04:09:56;-2.70;99.90
49503;DHT22;35409;48.776;9.204;2024-01-16T04:12:22;-2.80;99.90
49503;DHT22;35409;48.776;9.204;2024-01-16T04:14:48;-2.90;99.90
49503;DHT22;35409;48.776;9.204;2024-01-16T04:17:13;-2.90;99.90
49503;DHT22;35409;48.776;9.204;2024-01-16T04:19:39;-2.90;99.90
49503;DHT22;35409;48.776;9.204;2024-01-16T04:22:06;-2.90;99.90
49503;DHT22;35409;48.776;9.204;2024-01-16T04:24:32;-3.00;99.90
49503;DHT22;35409;48.776;9.204;2024-01-16T04:26:58;-3.00;99.90
49503;DHT22;35409;48.776;9.204;2024-01-16T04:29:23;-3.00;99.90
49503;DHT22;35409;48.776;9.204;2024-01-16T04:31:49;-3.10;99.90
49503;DHT22;35409;48.776;9.204;2024-01-16T04:34:15;-3.00;99.90
49503;DHT22;35409;48.776;9.204;2024-01-16T04:36:40;-3.00;99.90
49503;DHT22;35409;48.776;9.204;2024-01-16T04:39:06;-2.90;99.90
49503;DHT22;35409;48.776;9.204;2024-01-16T04:41:32;-2.90;99.90
49503;DHT22;35409;48.776;9.204;2024-01-16T04:43:57;-2.90;99.90
49503;DHT22;35409;48.776;9.204;2024-01-16T04:46:23;-2.90;99.90
49503;DHT22;35409;48.776;9.204;2024-01-16T04:48:48;-2.90;99.90
49503;DHT22;35409;48.776;9.204;2024-01-16T04:51:16;-2.90;99.90
49503;DHT22;35409;48.776;9.204;2024-01-16T04:53:43;-2.90;99.90
49503;DHT22;35409;48.776;9.204;2024-01-16T04:56:09;-3.00;99.90
49503;DHT22;35409;48.776;9.204;2024-01-16T04:58:34;-3.00;99.90
49503;DHT22;35409;48.776;9.204;2024-01-16T05:01:00;-3.00;99.90
49503;DHT22;35409;48.776;9.204;2024-01-16T05:03:25;-3.00;99.90
49503;DHT22;35409;48.776;9.204;2024-01-16T05:05:51;-3.00;99.90
49503;DHT22;35409;48.776;9.204;2024-01-16T05:08:17;-3.00;99.90
49503;DHT22;35409;48.776;9.204;2024-01-16T05:10:43;-3.00;99.90
49503;DHT22;35409;48.776;9.204;2024-01-16T05:13:09;-3.00;99.90
49503;DHT22;35409;48.776;9.204;2024-01-16T05:15:36;-3.10;99.90
49503;DHT22;35409;48.776;9.204;2024-01-16T05:18:03;-3.10;99.90
49503;DHT22;35409;48.776;9.204;2024-01-16T05:20:29;-3.00;99.90
49503;DHT22;35409;48.776;9.204;2024-01-16T05:22:55;-3.00;99.90
49503;DHT22;35409;48.776;9.204;2024-01-16T05:25:22;-3.00;99.90
49503;DHT22;35409;48.776;9.204;2024-01-16T05:27:49;-3.00;99.90
49503;DHT22;35409;48.776;9.204;2024-01-16T05:30:17;-3.00;99.90
49503;DHT22;35409;48.776;9.204;2024-01-16T05:32:42;-3.00;99.90
49503;DHT22;35409;48.776;9.204;2024-01-16T05:35:08;-2.90;99.90
49503;DHT22;35409;48.776;9.204;2024-01-16T05:37:35;-2.90;99.90
49503;DHT22;35409;48.776;9.204;2024-01-16T05:40:02;-2.90;99.90
49503;DHT22;35409;48.776;9.204;2024-01-16T05:42:29;-2.90;99.90
49503;DHT22;35409;48.776;9.204;2024-01-16T05:44:55;-2.90;99.90
49503;DHT22;35409;48.776;9.204;2024-01-16T05:47:21;-2.90;99.90
49503;DHT22;35409;48.776;9.204;2024-01-16T05:49:49;-3.00;99.90
49503;DHT22;35409;48.776;9.204;2024-01-16T05:52:16;-3.00;99.90
49503;DHT22;35409;48.776;9.204;2024-01-16T05:54:42;-3.00;99.90
49503;DHT22;35409;48.776;9.204;2024-01-16T05:57:08;-3.00;99.90
49503;DHT22;35409;48.776;9.204;2024-01-16T05:59:34;-3.10;99.90
49503;DHT22;35409;48.776;9.204;2024-01-16T06:01:59;-3.10;99.90
49503;DHT22;35409;48.776;9.204;2024-01-16T06:04:25;-3.10;99.90
49503;DHT22;35409;48.776;9.204;2024-01-16T06:06:51;-3.10;99.90
49503;DHT22;35409;48.776;9.204;2024-01-16T06:09:16;-3.10;99.90
49503;DHT22;35409;48.776;9.204;2024-01-16T06:11:42;-3.10;99.90
49503;DHT22;35409;48.776;9.204;2024-01-16T06:14:08;-3.10;99.90
49503;DHT22;35409;48.776;9.204;2024-01-16T06:16:37;-3.00;99.90
49503;DHT22;35409;48.776;9.204;2024-01-16T06:19:04;-3.00;99.90
49503;DHT22;35409;48.776;9.204;2024-01-16T06:21:32;-2.90;99.90
49503;DHT22;35409;48.776;9.204;2024-01-16T06:23:57;-2.90;99.90
49503;DHT22;35409;48.776;9.204;2024-01-16T06:26:24;-2.90;99.90
49503;DHT22;35409;48.776;9.204;2024-01-16T06:28:50;-2.90;99.90
49503;DHT22;35409;48.776;9.204;2024-01-16T06:31:16;-2.80;99.90
49503;DHT22;35409;48.776;9.204;2024-01-16T06:33:42;-2.80;99.90
49503;DHT22;35409;48.776;9.204;2024-01-16T06:36:07;-2.80;99.90
49503;DHT22;35409;48.776;9.204;2024-01-16T06:38:33;-2.90;99.90
49503;DHT22;35409;48.776;9.204;2024-01-16T06:40:59;-2.80;99.90
49503;DHT22;35409;48.776;9.204;2024-01-16T06:43:27;-2.80;99.90
49503;DHT22;35409;48.776;9.204;2024-01-16T06:45:53;-2.80;99.90
49503;DHT22;35409;48.776;9.204;2024-01-16T06:48:18;-2.70;99.90
49503;DHT22;35409;48.776;9.204;2024-01-16T06:50:44;-2.60;99.90
49503;DHT22;35409;48.776;9.204;2024-01-16T06:53:12;-2.60;99.90
49503;DHT22;35409;48.776;9.204;2024-01-16T06:55:38;-2.60;99.90
49503;DHT22;35409;48.776;9.204;2024-01-16T06:58:05;-2.50;99.90
49503;DHT22;35409;48.776;9.204;2024-01-16T07:00:30;-2.40;99.90
49503;DHT22;35409;48.776;9.204;2024-01-16T07:02:57;-2.50;99.90
49503;DHT22;35409;48.776;9.204;2024-01-16T07:05:23;-2.50;99.90
49503;DHT22;35409;48.776;9.204;2024-01-16T07:07:49;-2.40;99.90
49503;DHT22;35409;48.776;9.204;2024-01-16T07:10:15;-2.40;99.90
49503;DHT22;35409;48.776;9.204;2024-01-16T07:12:47;-2.40;99.90
49503;DHT22;35409;48.776;9.204;2024-01-16T07:15:15;-2.40;99.90
49503;DHT22;35409;48.776;9.204;2024-01-16T07:17:41;-2.50;99.90
49503;DHT22;35409;48.776;9.204;2024-01-16T07:20:07;-2.40;99.90
49503;DHT22;35409;48.776;9.204;2024-01-16T07:22:33;-2.40;99.90
49503;DHT22;35409;48.776;9.204;2024-01-16T07:25:00;-2.40;99.90
49503;DHT22;35409;48.776;9.204;2024-01-16T07:27:26;-2.40;99.90
49503;DHT22;35409;48.776;9.204;2024-01-16T07:29:51;-2.40;99.90
49503;DHT22;35409;48.776;9.204;2024-01-16T07:32:18;-2.50;99.90
49503;DHT22;35409;48.776;9.204;2024-01-16T07:34:44;-2.60;99.90
49503;DHT22;35409;48.776;9.204;2024-01-16T07:37:09;-2.60;99.90
49503;DHT22;35409;48.776;9.204;2024-01-16T07:39:38;-2.60;99.90
49503;DHT22;35409;48.776;9.204;2024-01-16T07:42:05;-2.50;99.90
49503;DHT22;35409;48.776;9.204;2024-01-16T07:44:30;-2.50;99.90
49503;DHT22;35409;48.776;9.204;2024-01-16T07:46:56;-2.40;99.90
49503;DHT22;35409;48.776;9.204;2024-01-16T07:49:22;-2.40;99.90
49503;DHT22;35409;48.776;9.204;2024-01-16T07:51:49;-2.40;99.90
49503;DHT22;35409;48.776;9.204;2024-01-16T07:54:15;-2.30;99.90
49503;DHT22;35409;48.776;9.204;2024-01-16T07:56:41;-2.20;99.90
49503;DHT22;35409;48.776;9.204;2024-01-16T07:59:08;-2.20;99.90
49503;DHT22;35409;48.776;9.204;2024-01-16T08:01:40;-2.20;99.90
49503;DHT22;35409;48.776;9.204;2024-01-16T08:04:06;-2.10;99.90
49503;DHT22;35409;48.776;9.204;2024-01-16T08:06:31;-2.10;99.90
49503;DHT22;35409;48.776;9.204;2024-01-16T08:08:58;-2.00;99.90
49503;DHT22;35409;48.776;9.204;2024-01-16T08:11:24;-1.90;99.90
49503;DHT22;35409;48.776;9.204;2024-01-16T08:13:49;-1.90;99.90
49503;DHT22;35409;48.776;9.204;2024-01-16T08:16:15;-1.80;99.90
49503;DHT22;35409;48.776;9.204;2024-01-16T08:18:41;-1.70;99.90
49503;DHT22;35409;48.776;9.204;2024-01-16T08:21:09;-1.60;99.90
49503;DHT22;35409;48.776;9.204;2024-01-16T08:23:34;-1.50;99.90
49503;DHT22;35409;48.776;9.204;2024-01-16T08:26:00;-1.40;99.90
49503;DHT22;35409;48.776;9.204;2024-01-16T08:28:26;-1.30;99.90
49503;DHT22;35409;48.776;9.204;2024-01-16T08:30:52;-1.20;99.90
49503;DHT22;35409;48.776;9.204;2024-01-16T08:33:19;-1.20;99.90
49503;DHT22;35409;48.776;9.204;2024-01-16T08:35:45;-1.10;99.90
49503;DHT22;35409;48.776;9.204;2024-01-16T08:38:10;-1.00;99.90
49503;DHT22;35409;48.776;9.204;2024-01-16T08:40:36;-0.90;99.90
49503;DHT22;35409;48.776;9.204;2024-01-16T08:43:02;-0.90;99.90
49503;DHT22;35409;48.776;9.204;2024-01-16T08:45:29;-0.80;99.90
49503;DHT22;35409;48.776;9.204;2024-01-16T08:47:54;-0.80;99.90
49503;DHT22;35409;48.776;9.204;2024-01-16T08:50:20;-0.70;99.90
49503;DHT22;35409;48.776;9.204;2024-01-16T08:52:46;-0.70;99.90
49503;DHT22;35409;48.776;9.204;2024-01-16T08:55:12;-0.70;99.90
49503;DHT22;35409;48.776;9.204;2024-01-16T08:57:37;-0.60;99.90
49503;DHT22;35409;48.776;9.204;2024-01-16T09:00:04;-0.60;99.90
49503;DHT22;35409;48.776;9.204;2024-01-16T09:02:30;-0.50;99.90
49503;DHT22;35409;48.776;9.204;2024-01-16T09:04:57;-0.40;99.90
49503;DHT22;35409;48.776;9.204;2024-01-16T09:07:24;-0.30;99.90
49503;DHT22;35409;48.776;9.204;2024-01-16T09:09:50;-0.30;99.90
49503;DHT22;35409;48.776;9.204;2024-01-16T09:12:17;-0.30;99.90
49503;DHT22;35409;48.776;9.204;2024-01-16T09:14:44;-0.30;99.90
49503;DHT22;35409;48.776;9.204;2024-01-16T09:17:10;-0.20;99.90
49503;DHT22;35409;48.776;9.204;2024-01-16T09:19:36;-0.20;99.90
49503;DHT22;35409;48.776;9.204;2024-01-16T09:22:01;-0.10;99.90
49503;DHT22;35409;48.776;9.204;2024-01-16T09:24:28;-0.10;99.90
49503;DHT22;35409;48.776;9.204;2024-01-16T09:26:54;0.00;99.90
49503;DHT22;35409;48.776;9.204;2024-01-16T09:29:20;0.00;99.90
49503;DHT22;35409;48.776;9.204;2024-01-16T09:31:47;0.00;99.90
49503;DHT22;35409;48.776;9.204;2024-01-16T09:34:13;0.20;99.90
49503;DHT22;35409;48.776;9.204;2024-01-16T09:36:40;0.20;99.90
49503;DHT22;35409;48.776;9.204;2024-01-16T09:39:07;0.30;99.90
49503;DHT22;35409;48.776;9.204;2024-01-16T09:41:39;0.40;99.90
49503;DHT22;35409;48.776;9.204;2024-01-16T09:44:05;0.40;99.90
49503;DHT22;35409;48.776;9.204;2024-01-16T09:46:33;0.50;99.90
49503;DHT22;35409;48.776;9.204;2024-01-16T09:49:00;0.60;99.90
49503;DHT22;35409;48.776;9.204;2024-01-16T09:51:28;0.70;99.90
49503;DHT22;35409;48.776;9.204;2024-01-16T09:53:53;0.90;99.90
49503;DHT22;35409;48.776;9.204;2024-01-16T09:56:22;1.10;99.90
49503;DHT22;35409;48.776;9.204;2024-01-16T09:58:57;1.30;99.90
49503;DHT22;35409;48.776;9.204;2024-01-16T10:01:26;1.40;99.90
49503;DHT22;35409;48.776;9.204;2024-01-16T10:03:58;1.50;99.90
49503;DHT22;35409;48.776;9.204;2024-01-16T10:06:27;1.50;99.90
49503;DHT22;35409;48.776;9.204;2024-01-16T10:08:53;1.50;99.90
49503;DHT22;35409;48.776;9.204;2024-01-16T10:11:19;1.60;99.90
49503;DHT22;35409;48.776;9.204;2024-01-16T10:13:46;1.80;99.90
49503;DHT22;35409;48.776;9.204;2024-01-16T10:16:12;1.90;99.90
49503;DHT22;35409;48.776;9.204;2024-01-16T10:18:39;2.00;99.90
49503;DHT22;35409;48.776;9.204;2024-01-16T10:21:04;2.10;99.90
49503;DHT22;35409;48.776;9.204;2024-01-16T10:23:32;2.20;99.90
49503;DHT22;35409;48.776;9.204;2024-01-16T10:26:19;2.30;99.90
49503;DHT22;35409;48.776;9.204;2024-01-16T10:28:46;2.40;99.90
49503;DHT22;35409;48.776;9.204;2024-01-16T10:31:13;2.40;99.90
49503;DHT22;35409;48.776;9.204;2024-01-16T10:33:42;2.40;99.90
49503;DHT22;35409;48.776;9.204;2024-01-16T10:38:36;2.50;99.90
49503;DHT22;35409;48.776;9.204;2024-01-16T10:44:05;2.40;99.90
49503;DHT22;35409;48.776;9.204;2024-01-16T10:46:32;2.50;99.90
49503;DHT22;35409;48.776;9.204;2024-01-16T10:49:00;2.40;99.90
49503;DHT22;35409;48.776;9.204;2024-01-16T10:51:27;2.40;99.90
49503;DHT22;35409;48.776;9.204;2024-01-16T10:54:02;2.50;99.90
49503;DHT22;35409;48.776;9.204;2024-01-16T10:56:31;2.60;99.90
49503;DHT22;35409;48.776;9.204;2024-01-16T10:59:28;2.70;99.90
49503;DHT22;35409;48.776;9.204;2024-01-16T11:01:59;2.60;99.90
49503;DHT22;35409;48.776;9.204;2024-01-16T11:04:29;2.60;99.90
49503;DHT22;35409;48.776;9.204;2024-01-16T11:06:55;2.50;99.90
49503;DHT22;35409;48.776;9.204;2024-01-16T11:09:21;2.50;99.90
49503;DHT22;35409;48.776;9.204;2024-01-16T11:11:48;2.40;99.90
49503;DHT22;35409;48.776;9.204;2024-01-16T11:14:17;2.40;99.90
49503;DHT22;35409;48.776;9.204;2024-01-16T11:16:43;2.30;99.90
49503;DHT22;35409;48.776;9.204;2024-01-16T11:19:12;2.20;99.90
49503;DHT22;35409;48.776;9.204;2024-01-16T11:21:39;2.20;99.90
49503;DHT22;35409;48.776;9.204;2024-01-16T11:24:07;2.20;99.90
49503;DHT22;35409;48.776;9.204;2024-01-16T11:26:34;2.20;99.90
49503;DHT22;35409;48.776;9.204;2024-01-16T11:31:52;2.30;99.90
49503;DHT22;35409;48.776;9.204;2024-01-16T11:37:07;2.20;99.90
49503;DHT22;35409;48.776;9.204;2024-01-16T11:39:34;2.20;99.90
49503;DHT22;35409;48.776;9.204;2024-01-16T11:42:00;2.10;99.90
49503;DHT22;35409;48.776;9.204;2024-01-16T11:44:43;2.10;99.90
49503;DHT22;35409;48.776;9.204;2024-01-16T11:47:22;2.00;99.90
49503;DHT22;35409;48.776;9.204;2024-01-16T11:49:50;2.00;99.90
49503;DHT22;35409;48.776;9.204;2024-01-16T11:52:44;2.00;99.90
49503;DHT22;35409;48.776;9.204;2024-01-16T11:55:29;2.10;99.90
49503;DHT22;35409;48.776;9.204;2024-01-16T12:01:03;2.20;99.90
49503;DHT22;35409;48.776;9.204;2024-01-16T12:03:30;2.20;99.90
49503;DHT22;35409;48.776;9.204;2024-01-16T12:06:00;2.20;99.90
49503;DHT22;35409;48.776;9.204;2024-01-16T12:08:26;2.20;99.90
49503;DHT22;35409;48.776;9.204;2024-01-16T12:10:53;2.30;99.90
49503;DHT22;35409;48.776;9.204;2024-01-16T12:13:19;2.40;99.90
49503;DHT22;35409;48.776;9.204;2024-01-16T12:15:45;2.40;99.70
49503;DHT22;35409;48.776;9.204;2024-01-16T12:18:18;2.50;99.60
49503;DHT22;35409;48.776;9.204;2024-01-16T12:20:45;2.50;99.80
49503;DHT22;35409;48.776;9.204;2024-01-16T12:23:32;2.60;99.10
49503;DHT22;35409;48.776;9.204;2024-01-16T12:25:59;2.50;98.80
49503;DHT22;35409;48.776;9.204;2024-01-16T12:28:28;2.50;98.70
49503;DHT22;35409;48.776;9.204;2024-01-16T12:30:54;2.40;99.20
49503;DHT22;35409;48.776;9.204;2024-01-16T12:33:23;2.40;98.70
49503;DHT22;35409;48.776;9.204;2024-01-16T12:35:48;2.40;99.10
49503;DHT22;35409;48.776;9.204;2024-01-16T12:38:15;2.40;99.10
49503;DHT22;35409;48.776;9.204;2024-01-16T12:40:48;2.40;98.90
49503;DHT22;35409;48.776;9.204;2024-01-16T12:43:17;2.40;98.70
49503;DHT22;35409;48.776;9.204;2024-01-16T12:45:45;2.40;98.60
49503;DHT22;35409;48.776;9.204;2024-01-16T12:48:12;2.40;98.40
49503;DHT22;35409;48.776;9.204;2024-01-16T12:50:38;2.40;98.50
49503;DHT22;35409;48.776;9.204;2024-01-16T12:53:10;2.40;98.30
49503;DHT22;35409;48.776;9.204;2024-01-16T12:55:39;2.40;98.40
49503;DHT22;35409;48.776;9.204;2024-01-16T12:58:21;2.40;98.50
49503;DHT22;35409;48.776;9.204;2024-01-16T13:00:50;2.40;98.00
49503;DHT22;35409;48.776;9.204;2024-01-16T13:03:37;2.40;97.80
49503;DHT22;35409;48.776;9.204;2024-01-16T13:06:03;2.40;98.10
49503;DHT22;35409;48.776;9.204;2024-01-16T13:08:29;2.40;98.10
49503;DHT22;35409;48.776;9.204;2024-01-16T13:11:09;2.40;97.80
49503;DHT22;35409;48.776;9.204;2024-01-16T13:13:37;2.40;98.50
49503;DHT22;35409;48.776;9.204;2024-01-16T13:16:04;2.40;98.20
49503;DHT22;35409;48.776;9.204;2024-01-16T13:18:33;2.30;98.10
49503;DHT22;35409;48.776;9.204;2024-01-16T13:20:59;2.20;98.30
49503;DHT22;35409;48.776;9.204;2024-01-16T13:23:26;2.30;99.00
49503;DHT22;35409;48.776;9.204;2024-01-16T13:25:53;2.30;98.80
49503;DHT22;35409;48.776;9.204;2024-01-16T13:28:21;2.40;98.40
49503;DHT22;35409;48.776;9.204;2024-01-16T13:30:48;2.40;98.30
49503;DHT22;35409;48.776;9.204;2024-01-16T13:33:18;2.50;97.90
49503;DHT22;35409;48.776;9.204;2024-01-16T13:35:45;2.50;97.80
49503;DHT22;35409;48.776;9.204;2024-01-16T13:38:13;2.60;97.70
49503;DHT22;35409;48.776;9.204;2024-01-16T13:40:42;2.60;97.40
49503;DHT22;35409;48.776;9.204;2024-01-16T13:43:10;2.60;97.10
49503;DHT22;35409;48.776;9.204;2024-01-16T13:45:37;2.50;97.20
49503;DHT22;35409;48.776;9.204;2024-01-16T13:48:04;2.50;97.30
49503;DHT22;35409;48.776;9.204;2024-01-16T13:50:32;2.40;97.50
49503;DHT22;35409;48.776;9.204;2024-01-16T13:52:59;2.40;97.50
49503;DHT22;35409;48.776;9.204;2024-01-16T13:55:25;2.40;97.50
49503;DHT22;35409;48.776;9.204;2024-01-16T13:57:50;2.30;97.60
49503;DHT22;35409;48.776;9.204;2024-01-16T14:00:17;2.30;98.50
49503;DHT22;35409;48.776;9.204;2024-01-16T14:02:45;2.30;98.30
49503;DHT22;35409;48.776;9.204;2024-01-16T14:05:13;2.30;97.70
49503;DHT22;35409;48.776;9.204;2024-01-16T14:07:47;2.40;97.80
49503;DHT22;35409;48.776;9.204;2024-01-16T14:10:18;2.30;97.70
49503;DHT22;35409;48.776;9.204;2024-01-16T14:12:46;2.30;97.40
49503;DHT22;35409;48.776;9.204;2024-01-16T14:15:13;2.20;97.50
49503;DHT22;35409;48.776;9.204;2024-01-16T14:17:44;2.20;97.90
49503;DHT22;35409;48.776;9.204;2024-01-16T14:20:13;2.10;97.90
49503;DHT22;35409;48.776;9.204;2024-01-16T14:22:40;2.10;98.10
49503;DHT22;35409;48.776;9.204;2024-01-16T14:25:15;2.00;98.40
49503;DHT22;35409;48.776;9.204;2024-01-16T14:27:48;1.90;98.30
49503;DHT22;35409;48.776;9.204;2024-01-16T14:30:20;1.80;98.30
49503;DHT22;35409;48.776;9.204;2024-01-16T14:32:46;1.70;98.40
49503;DHT22;35409;48.776;9.204;2024-01-16T14:35:13;1.60;98.60
49503;DHT22;35409;48.776;9.204;2024-01-16T14:37:42;1.50;98.70
49503;DHT22;35409;48.776;9.204;2024-01-16T14:40:08;1.50;98.70
49503;DHT22;35409;48.776;9.204;2024-01-16T14:42:39;1.40;98.70
49503;DHT22;35409;48.776;9.204;2024-01-16T14:45:05;1.30;98.70
49503;DHT22;35409;48.776;9.204;2024-01-16T14:47:31;1.20;98.90
49503;DHT22;35409;48.776;9.204;2024-01-16T14:49:57;1.10;99.20
49503;DHT22;35409;48.776;9.204;2024-01-16T14:52:24;1.00;99.00
49503;DHT22;35409;48.776;9.204;2024-01-16T14:54:50;0.90;99.30
49503;DHT22;35409;48.776;9.204;2024-01-16T14:57:18;0.80;99.10
49503;DHT22;35409;48.776;9.204;2024-01-16T14:59:44;0.80;98.80
49503;DHT22;35409;48.776;9.204;2024-01-16T15:02:10;0.70;99.30
49503;DHT22;35409;48.776;9.204;2024-01-16T15:04:43;0.60;99.90
49503;DHT22;35409;48.776;9.204;2024-01-16T15:07:09;0.50;99.90
49503;DHT22;35409;48.776;9.204;2024-01-16T15:09:35;0.40;99.90
49503;DHT22;35409;48.776;9.204;2024-01-16T15:12:04;0.30;99.90
49503;DHT22;35409;48.776;9.204;2024-01-16T15:14:33;0.20;99.90
49503;DHT22;35409;48.776;9.204;2024-01-16T15:17:02;0.10;99.90
49503;DHT22;35409;48.776;9.204;2024-01-16T15:19:28;0.00;99.90
49503;DHT22;35409;48.776;9.204;2024-01-16T15:21:54;-0.10;99.90
49503;DHT22;35409;48.776;9.204;2024-01-16T15:24:20;-0.20;99.90
49503;DHT22;35409;48.776;9.204;2024-01-16T15:26:54;-0.30;99.90
49503;DHT22;35409;48.776;9.204;2024-01-16T15:29:20;-0.40;99.90
49503;DHT22;35409;48.776;9.204;2024-01-16T15:31:46;-0.40;99.90
49503;DHT22;35409;48.776;9.204;2024-01-16T15:36:38;-0.60;99.90
49503;DHT22;35409;48.776;9.204;2024-01-16T15:39:04;-0.70;99.90
49503;DHT22;35409;48.776;9.204;2024-01-16T15:41:30;-0.80;99.90
49503;DHT22;35409;48.776;9.204;2024-01-16T15:43:56;-0.80;99.90
49503;DHT22;35409;48.776;9.204;2024-01-16T15:46:23;-0.90;99.90
49503;DHT22;35409;48.776;9.204;2024-01-16T15:48:48;-1.00;99.90
49503;DHT22;35409;48.776;9.204;2024-01-16T15:51:16;-1.00;99.90
49503;DHT22;35409;48.776;9.204;2024-01-16T15:53:42;-1.10;99.90
49503;DHT22;35409;48.776;9.204;2024-01-16T15:56:08;-1.10;99.90